Time;durP1;ratioP1;P1;durP2;ratioP2;P2;SDS_P1;SDS_P2;PMS_P1;PMS_P2;Temp;Humidity;BMP_temperature;BMP_pressure;BME280_temperature;BME280_humidity;BME280_pressure;Samples;Min_cycle;Max_cycle;Signal;HPM_P1;HPM_P2
2022/05/07 00:01:37;;;;;;;;;6.25;4.00;;;;;18.94;44.38;102045.28;5061881;28;46253;-79
2022/05/07 00:04:03;;;;;;;;;6.00;4.75;;;;;18.95;44.24;102043.47;5069523;28;45398;-79
2022/05/07 00:06:28;;;;;;;;;5.00;5.00;;;;;18.88;44.64;102045.59;5068874;28;45393;-78
2022/05/07 00:08:53;;;;;;;;;6.25;5.00;;;;;18.86;44.63;102037.53;5078005;28;45452;-79
2022/05/07 00:11:20;;;;;;;;;6.75;4.75;;;;;18.83;44.86;102039.53;5071880;28;46165;-79
2022/05/07 00:13:47;;;;;;;;;6.25;6.25;;;;;18.80;45.09;102043.19;5075821;28;45649;-79
2022/05/07 00:18:56;;;;;;;;;6.75;5.00;;;;;18.78;45.11;102034.28;5062249;28;45455;-79
2022/05/07 00:21:22;;;;;;;;;5.50;5.00;;;;;18.75;45.00;102033.56;5062368;28;46416;-79
2022/05/07 00:23:47;;;;;;;;;5.00;5.00;;;;;18.69;45.24;102029.28;5061664;28;45561;-79
2022/05/07 00:26:12;;;;;;;;;7.00;7.00;;;;;18.66;45.65;102032.13;5063741;28;45281;-79
2022/05/07 00:28:38;;;;;;;;;6.00;6.00;;;;;18.64;45.34;102031.31;5062123;27;45312;-79
2022/05/07 00:31:04;;;;;;;;;5.50;5.00;;;;;18.62;45.90;102035.94;5070453;28;46058;-79
2022/05/07 00:33:29;;;;;;;;;5.75;5.75;;;;;18.58;45.73;102037.91;5078731;28;45281;-79
2022/05/07 00:35:55;;;;;;;;;6.00;6.00;;;;;18.57;45.73;102032.56;5072968;28;45750;-78
2022/05/07 00:38:20;;;;;;;;;6.50;6.50;;;;;18.52;45.98;102025.53;5061931;28;45484;-78
2022/05/07 00:40:45;;;;;;;;;6.25;6.25;;;;;18.52;45.72;102030.94;5063431;28;47345;-78
2022/05/07 00:43:15;;;;;;;;;6.25;6.00;;;;;18.54;45.72;102038.09;5061867;28;45314;-78
2022/05/07 00:45:42;;;;;;;;;7.00;6.50;;;;;18.53;46.27;102031.84;5070203;28;45322;-79
2022/05/07 00:48:07;;;;;;;;;10.50;9.25;;;;;18.48;46.23;102018.50;5074263;28;45508;-79
2022/05/07 00:53:17;;;;;;;;;7.00;7.00;;;;;18.46;46.08;102023.13;5075249;28;45333;-79
2022/05/07 00:55:44;;;;;;;;;11.50;8.25;;;;;18.42;46.13;102018.78;5069730;28;45361;-79
2022/05/07 00:58:09;;;;;;;;;11.50;10.50;;;;;18.34;46.73;102020.94;5063498;28;45529;-78
2022/05/07 01:00:35;;;;;;;;;10.00;7.75;;;;;18.35;46.18;102020.00;5061333;28;45319;-78
2022/05/07 01:03:00;;;;;;;;;9.00;8.00;;;;;18.33;46.83;102021.91;5065351;28;45406;-79
2022/05/07 01:05:26;;;;;;;;;3.00;3.00;;;;;18.27;46.59;102011.38;5072077;28;45331;-78
2022/05/07 01:07:51;;;;;;;;;8.50;6.00;;;;;18.27;46.44;102020.34;5063247;28;45434;-78
2022/05/07 01:10:18;;;;;;;;;7.50;7.50;;;;;18.25;47.08;102021.38;5067280;28;45981;-78
2022/05/07 01:12:44;;;;;;;;;9.25;8.50;;;;;18.18;47.21;102018.06;5060879;28;45508;-78
2022/05/07 01:15:10;;;;;;;;;9.00;7.25;;;;;18.15;46.56;102018.19;5064996;28;45330;-78
2022/05/07 01:17:35;;;;;;;;;11.00;10.00;;;;;18.08;47.14;102008.63;5062622;28;45483;-78
2022/05/07 01:20:01;;;;;;;;;11.00;9.75;;;;;18.03;46.69;102006.09;5063397;28;46200;-78
2022/05/07 01:22:30;;;;;;;;;8.25;8.25;;;;;18.09;46.87;102013.06;5060846;28;45359;-78
2022/05/07 01:24:55;;;;;;;;;11.50;10.00;;;;;18.05;47.26;102019.56;5062725;28;45327;-78
2022/05/07 01:27:20;;;;;;;;;9.00;8.50;;;;;18.02;47.30;102017.84;5062045;28;46756;-78
2022/05/07 01:29:47;;;;;;;;;7.75;7.00;;;;;18.01;47.41;102021.50;5062679;27;46101;-78
2022/05/07 01:32:13;;;;;;;;;8.50;8.50;;;;;17.95;47.39;102014.53;5074633;28;45390;-78
2022/05/07 01:34:38;;;;;;;;;8.75;8.25;;;;;17.92;47.00;102014.66;5061039;28;45422;-78
2022/05/07 01:37:04;;;;;;;;;15.00;11.00;;;;;17.88;47.40;102015.75;5074434;28;45313;-78
2022/05/07 01:39:30;;;;;;;;;8.50;6.75;;;;;17.82;47.49;102013.25;5072072;28;46087;-78
2022/05/07 01:41:55;;;;;;;;;11.50;11.25;;;;;17.74;47.63;102015.41;5062185;28;45441;-77
2022/05/07 01:44:20;;;;;;;;;12.50;10.50;;;;;17.69;47.34;102012.94;5070940;28;45480;-78
2022/05/07 01:49:29;;;;;;;;;10.00;10.00;;;;;17.68;47.67;102008.47;5064212;28;45527;-78
2022/05/07 01:51:55;;;;;;;;;10.25;8.50;;;;;17.62;47.55;102006.00;5060822;28;45373;-78
2022/05/07 01:54:20;;;;;;;;;10.00;9.75;;;;;17.64;48.02;102005.94;5066006;28;45272;-78
2022/05/07 01:56:45;;;;;;;;;11.75;9.50;;;;;17.66;47.92;102013.06;5060788;28;45391;-79
2022/05/07 01:59:11;;;;;;;;;9.75;9.75;;;;;17.64;47.61;102005.94;5059911;28;45299;-79
2022/05/07 02:01:36;;;;;;;;;8.25;7.75;;;;;17.62;47.91;102005.13;5077620;28;45360;-78
2022/05/07 02:04:02;;;;;;;;;10.50;10.25;;;;;17.64;48.02;102008.66;5065645;28;45416;-79
2022/05/07 02:06:27;;;;;;;;;11.25;7.00;;;;;17.59;48.07;102009.72;5073797;28;45371;-78
2022/05/07 02:08:54;;;;;;;;;12.50;10.00;;;;;17.58;47.88;102004.41;5072244;28;45251;-78
2022/05/07 02:11:20;;;;;;;;;9.00;9.00;;;;;17.54;48.14;101994.66;5073930;28;45477;-78
2022/05/07 02:13:45;;;;;;;;;11.50;10.00;;;;;17.55;48.60;102005.38;5060205;28;45678;-78
2022/05/07 02:16:10;;;;;;;;;7.75;7.75;;;;;17.53;48.37;102009.09;5060309;28;45216;-78
2022/05/07 02:18:36;;;;;;;;;9.50;9.50;;;;;17.50;48.11;102001.13;5060497;28;45516;-78
2022/05/07 02:21:02;;;;;;;;;9.00;9.00;;;;;17.52;48.50;102001.94;5070243;28;45491;-79
2022/05/07 02:23:27;;;;;;;;;11.50;9.50;;;;;17.52;48.60;102004.63;5060114;28;45466;-78
2022/05/07 02:25:53;;;;;;;;;11.50;9.50;;;;;17.51;48.11;102000.19;5064052;28;45563;-78
2022/05/07 02:28:18;;;;;;;;;9.75;9.50;;;;;17.48;48.12;102000.31;5059853;28;46077;-78
2022/05/07 02:30:43;;;;;;;;;11.75;10.25;;;;;17.46;48.15;101992.28;5071809;27;45297;-78
2022/05/07 02:33:09;;;;;;;;;9.50;9.50;;;;;17.50;48.27;102003.84;5068951;28;45236;-78
2022/05/07 02:35:34;;;;;;;;;8.25;8.25;;;;;17.48;48.37;101995.78;5069097;28;45367;-78
2022/05/07 02:37:59;;;;;;;;;8.25;8.25;;;;;17.46;48.53;101996.78;5059924;28;45369;-78
2022/05/07 02:40:25;;;;;;;;;11.00;9.00;;;;;17.48;48.49;101994.94;5072572;28;46821;-78
2022/05/07 02:42:50;;;;;;;;;8.25;8.25;;;;;17.48;48.32;102000.31;5060445;28;45359;-78
2022/05/07 02:45:16;;;;;;;;;11.75;8.75;;;;;17.45;48.37;101995.91;5066388;28;45345;-78
2022/05/07 02:47:42;;;;;;;;;10.00;8.25;;;;;17.46;48.51;102004.88;5059959;28;46220;-78
2022/05/07 02:50:10;;;;;;;;;14.50;10.50;;;;;17.44;48.85;102006.78;5067076;28;45636;-78
2022/05/07 02:52:37;;;;;;;;;9.00;9.00;;;;;17.37;48.98;101993.56;5060458;28;45559;-78
2022/05/07 02:55:04;;;;;;;;;10.25;10.25;;;;;17.35;48.66;101998.09;5062429;28;45373;-78
2022/05/07 02:57:29;;;;;;;;;8.75;8.75;;;;;17.31;48.78;101993.78;5059925;28;49220;-78
2022/05/07 02:59:55;;;;;;;;;11.50;10.00;;;;;17.32;49.06;101997.34;5064931;28;45256;-78
2022/05/07 03:02:21;;;;;;;;;11.00;9.50;;;;;17.36;48.76;102005.28;5074864;28;45285;-78
2022/05/07 03:04:47;;;;;;;;;9.00;8.50;;;;;17.35;48.82;101994.53;5064869;28;45689;-78
2022/05/07 03:07:13;;;;;;;;;12.25;11.75;;;;;17.34;49.10;101990.97;5066933;28;46086;-78
2022/05/07 03:09:39;;;;;;;;;8.75;8.25;;;;;17.33;49.30;101993.72;5074816;28;45295;-78
2022/05/07 03:12:04;;;;;;;;;12.50;11.50;;;;;17.30;48.95;101994.72;5078579;28;45651;-79
2022/05/07 03:14:31;;;;;;;;;9.50;9.50;;;;;17.33;49.34;101994.59;5064351;28;45227;-78
2022/05/07 03:16:56;;;;;;;;;14.25;10.50;;;;;17.33;48.91;101991.03;5061570;28;46009;-78
2022/05/07 03:19:21;;;;;;;;;11.75;10.75;;;;;17.32;49.16;101995.53;5059184;28;45399;-78
2022/05/07 03:21:47;;;;;;;;;11.25;10.25;;;;;17.28;49.46;101995.75;5066774;28;45318;-78
2022/05/07 03:24:12;;;;;;;;;9.50;7.75;;;;;17.21;49.70;101984.31;5073946;28;45524;-78
2022/05/07 03:26:38;;;;;;;;;10.00;9.25;;;;;17.23;49.55;101991.41;5074816;28;46231;-78
2022/05/07 03:29:03;;;;;;;;;6.50;6.50;;;;;17.22;49.79;101999.53;5074088;27;45290;-78
2022/05/07 03:31:30;;;;;;;;;13.50;11.00;;;;;17.20;49.68;101990.66;5067021;28;45484;-78
2022/05/07 03:33:55;;;;;;;;;12.25;10.75;;;;;17.17;50.13;101998.84;5073718;28;45469;-78
2022/05/07 03:36:21;;;;;;;;;11.50;11.50;;;;;17.09;50.33;102004.56;5074324;28;46334;-78
2022/05/07 03:38:46;;;;;;;;;11.50;10.75;;;;;17.07;49.98;102011.81;5068039;28;45215;-78
2022/05/07 03:41:11;;;;;;;;;15.25;13.25;;;;;16.98;50.29;101996.88;5078884;28;45414;-78
2022/05/07 03:43:37;;;;;;;;;13.50;11.00;;;;;16.98;50.30;101996.03;5064285;28;45550;-78
2022/05/07 03:46:04;;;;;;;;;9.75;9.75;;;;;17.01;50.57;101995.91;5062637;28;45925;-78
2022/05/07 03:48:29;;;;;;;;;11.50;11.00;;;;;16.98;50.41;101982.53;5062332;28;45299;-78
2022/05/07 03:50:55;;;;;;;;;11.25;10.00;;;;;17.01;50.32;101993.22;5063838;28;45507;-78
2022/05/07 03:53:30;;;;;;;;;12.00;9.50;;;;;16.97;50.58;101983.47;5063540;28;45635;-78
2022/05/07 03:55:59;;;;;;;;;13.00;12.25;;;;;16.96;50.85;101990.69;5062328;28;46225;-78
2022/05/07 03:58:26;;;;;;;;;9.25;9.00;;;;;16.95;50.73;101985.34;5062489;28;45577;-78
2022/05/07 04:00:52;;;;;;;;;13.50;13.00;;;;;16.93;50.78;101990.81;5062137;28;45323;-78
2022/05/07 04:03:17;;;;;;;;;9.50;9.50;;;;;16.82;51.03;101976.81;5066375;28;45250;-79
2022/05/07 04:05:43;;;;;;;;;13.00;12.00;;;;;16.83;51.13;101979.47;5072234;28;47001;-80
2022/05/07 04:08:08;;;;;;;;;16.50;14.25;;;;;16.84;51.21;101983.06;5077637;28;45311;-78
2022/05/07 04:10:34;;;;;;;;;13.75;11.75;;;;;16.83;51.31;101984.84;5080015;28;45302;-78
2022/05/07 04:12:59;;;;;;;;;13.25;13.25;;;;;16.82;51.30;101987.59;5081380;28;45501;-78
2022/05/07 04:15:24;;;;;;;;;12.50;11.25;;;;;16.82;51.56;101993.91;5069756;28;46183;-78
2022/05/07 04:17:50;;;;;;;;;12.00;11.00;;;;;16.80;51.36;101990.34;5075681;28;45464;-78
2022/05/07 04:20:16;;;;;;;;;16.25;13.50;;;;;16.75;51.63;101986.97;5071884;28;45361;-78
2022/05/07 04:22:42;;;;;;;;;13.25;13.25;;;;;16.73;51.72;101985.28;5063278;28;45389;-78
2022/05/07 04:25:10;;;;;;;;;11.50;10.50;;;;;16.75;51.76;101978.88;5062112;28;45272;-78
2022/05/07 04:27:36;;;;;;;;;13.50;12.25;;;;;16.74;51.93;101977.13;5062001;28;45589;-78
2022/05/07 04:30:03;;;;;;;;;14.25;12.50;;;;;16.75;52.09;101980.69;5070531;28;45507;-78
2022/05/07 04:32:29;;;;;;;;;14.00;13.25;;;;;16.71;51.89;101977.25;5072591;28;45498;-78
2022/05/07 04:34:55;;;;;;;;;15.75;14.50;;;;;16.75;52.01;101986.97;5060781;28;45277;-76
2022/05/07 04:37:21;;;;;;;;;17.25;15.75;;;;;16.68;51.76;101977.34;5075073;28;45811;-78
2022/05/07 04:39:47;;;;;;;;;15.50;14.00;;;;;16.77;51.92;101989.59;5074081;28;45480;-79
2022/05/07 04:42:12;;;;;;;;;17.00;13.75;;;;;16.74;51.77;101993.31;5062733;28;47009;-80
2022/05/07 04:44:38;;;;;;;;;14.00;13.25;;;;;16.77;52.03;101995.00;5061573;28;46043;-80
2022/05/07 04:47:05;;;;;;;;;12.25;11.25;;;;;16.75;52.05;101988.78;5061663;28;45312;-79
2022/05/07 04:49:31;;;;;;;;;16.00;15.75;;;;;16.69;52.10;101989.91;5064533;28;45374;-80
2022/05/07 04:51:57;;;;;;;;;14.25;14.00;;;;;16.66;52.52;101982.81;5068187;28;45481;-77
2022/05/07 04:54:22;;;;;;;;;15.75;15.25;;;;;16.68;52.73;101999.78;5061140;28;45243;-77
2022/05/07 04:56:49;;;;;;;;;16.00;16.00;;;;;16.64;52.32;101995.47;5061031;28;45529;-77
2022/05/07 04:59:15;;;;;;;;;18.50;16.00;;;;;16.64;52.63;101982.00;5061829;28;45273;-80
2022/05/07 05:01:41;;;;;;;;;14.50;13.50;;;;;16.61;52.72;101982.09;5065945;28;45525;-77
2022/05/07 05:04:06;;;;;;;;;15.75;15.75;;;;;16.63;52.64;101991.00;5065618;28;45655;-77
2022/05/07 05:06:32;;;;;;;;;18.25;16.50;;;;;16.58;52.68;101984.91;5078326;28;45400;-77
2022/05/07 05:08:57;;;;;;;;;17.25;14.75;;;;;16.57;52.84;101983.19;5074729;28;45346;-77
2022/05/07 05:11:23;;;;;;;;;19.00;18.00;;;;;16.57;53.00;101988.56;5066340;28;45520;-77
2022/05/07 05:13:48;;;;;;;;;17.50;15.50;;;;;16.53;53.03;101988.72;5061316;28;45303;-77
2022/05/07 05:16:13;;;;;;;;;18.00;18.00;;;;;16.56;52.88;101999.41;5079017;28;45408;-77
2022/05/07 05:18:39;;;;;;;;;18.00;15.75;;;;;16.54;53.03;101990.47;5081627;28;45388;-77
2022/05/07 05:21:05;;;;;;;;;19.50;16.75;;;;;16.53;53.13;101989.59;5077515;28;45612;-77
2022/05/07 05:23:30;;;;;;;;;19.25;18.25;;;;;16.57;53.16;101995.75;5079586;27;46932;-77
2022/05/07 05:25:56;;;;;;;;;18.25;12.75;;;;;16.58;53.23;101995.69;5081432;28;45317;-77
2022/05/07 05:28:22;;;;;;;;;15.00;13.75;;;;;16.56;53.21;101989.50;5073357;28;45416;-77
2022/05/07 05:30:51;;;;;;;;;14.50;14.50;;;;;16.56;53.33;101984.09;5064896;27;46419;-77
2022/05/07 05:33:17;;;;;;;;;16.00;15.50;;;;;16.54;53.21;101977.00;5065781;28;47501;-77
2022/05/07 05:35:42;;;;;;;;;18.50;16.75;;;;;16.56;53.36;101978.72;5060713;28;45275;-77
2022/05/07 05:38:08;;;;;;;;;19.00;17.00;;;;;16.53;53.14;101981.50;5060945;28;45406;-77
2022/05/07 05:40:33;;;;;;;;;19.00;15.50;;;;;16.54;53.49;101977.00;5076455;28;45519;-77
2022/05/07 05:42:58;;;;;;;;;15.75;14.75;;;;;16.56;53.33;101981.41;5073801;28;45413;-77
2022/05/07 05:45:24;;;;;;;;;18.00;17.75;;;;;16.59;53.69;101993.88;5059711;28;45331;-77
2022/05/07 05:47:49;;;;;;;;;17.50;15.25;;;;;16.59;53.48;101992.06;5071815;28;45228;-77
2022/05/07 05:50:15;;;;;;;;;18.25;17.50;;;;;16.60;53.65;101996.50;5059949;28;45240;-77
2022/05/07 05:52:40;;;;;;;;;15.00;14.25;;;;;16.61;53.43;101992.88;5073950;28;46239;-77
2022/05/07 05:55:06;;;;;;;;;15.75;15.75;;;;;16.62;53.52;102000.06;5060570;28;45349;-77
2022/05/07 05:57:31;;;;;;;;;18.25;16.00;;;;;16.64;53.58;101997.31;5067664;28;45504;-80
2022/05/07 05:59:57;;;;;;;;;18.25;15.75;;;;;16.65;53.75;101993.66;5065261;28;45539;-77
2022/05/07 06:02:23;;;;;;;;;16.25;15.75;;;;;16.65;53.59;101990.94;5064541;28;46045;-77
2022/05/07 06:04:48;;;;;;;;;19.00;17.50;;;;;16.66;53.64;101993.59;5071582;28;45682;-78
2022/05/07 06:07:13;;;;;;;;;16.75;16.75;;;;;16.65;53.85;101999.03;5068822;27;45399;-78
2022/05/07 06:09:39;;;;;;;;;16.50;16.00;;;;;16.63;53.60;101990.13;5080803;28;45185;-78
2022/05/07 06:12:04;;;;;;;;;14.75;14.50;;;;;16.66;54.00;101990.91;5077384;28;45452;-77
2022/05/07 06:14:30;;;;;;;;;18.75;17.25;;;;;16.67;53.76;101989.06;5074094;28;45212;-77
2022/05/07 06:16:55;;;;;;;;;18.00;17.50;;;;;16.65;53.85;101982.88;5063276;28;45417;-75
2022/05/07 06:19:20;;;;;;;;;15.25;14.50;;;;;16.64;53.86;101987.38;5062697;28;45287;-68
2022/05/07 06:21:46;;;;;;;;;13.75;13.25;;;;;16.68;53.90;101990.84;5062846;28;48078;-69
2022/05/07 06:29:39;;;;;;;;;23.75;20.25;;;;;16.58;54.13;101971.44;5071885;28;45414;-69
2022/05/07 06:32:05;;;;;;;;;22.00;18.75;;;;;16.65;54.11;101989.13;5061615;28;45324;-69
2022/05/07 06:34:30;;;;;;;;;23.00;22.00;;;;;16.70;53.92;101999.75;5076459;28;45225;-69
2022/05/07 06:36:57;;;;;;;;;15.75;14.25;;;;;16.68;53.88;101997.09;5061793;28;45320;-68
2022/05/07 06:39:23;;;;;;;;;17.00;17.00;;;;;16.69;54.18;102000.69;5063547;28;45417;-68
2022/05/07 06:41:50;;;;;;;;;17.75;17.75;;;;;16.72;54.00;102014.03;5061518;28;45568;-69
2022/05/07 06:44:15;;;;;;;;;16.00;15.00;;;;;16.74;54.23;102016.69;5060700;28;45509;-69
2022/05/07 06:46:41;;;;;;;;;19.00;16.00;;;;;16.73;54.17;102018.50;5063571;28;45454;-71
2022/05/07 06:49:06;;;;;;;;;23.25;19.50;;;;;16.75;54.44;102029.22;5073384;28;45429;-71
2022/05/07 06:51:37;;;;;;;;;22.25;19.50;;;;;16.76;54.35;102029.19;5065890;28;46333;-70
2022/05/07 06:54:03;;;;;;;;;17.75;16.50;;;;;16.73;54.29;102020.34;5059835;28;45506;-70
2022/05/07 06:56:28;;;;;;;;;20.00;18.25;;;;;16.65;54.24;102010.69;5058664;28;45398;-71
2022/05/07 06:58:53;;;;;;;;;20.00;19.50;;;;;16.74;54.07;102031.06;5077405;28;45560;-70
2022/05/07 07:01:19;;;;;;;;;19.50;19.25;;;;;16.75;54.08;102030.09;5064675;28;46204;-71
2022/05/07 07:03:44;;;;;;;;;19.00;16.75;;;;;16.80;54.23;102035.31;5076158;28;45395;-70
2022/05/07 07:06:10;;;;;;;;;18.75;16.50;;;;;16.81;54.45;102037.09;5077742;28;45335;-70
2022/05/07 07:08:35;;;;;;;;;25.50;22.75;;;;;16.81;54.46;102040.66;5077099;27;45544;-71
2022/05/07 07:11:00;;;;;;;;;20.25;19.25;;;;;16.77;54.42;102035.44;5076617;28;47145;-71
2022/05/07 07:13:26;;;;;;;;;20.75;18.25;;;;;16.72;54.45;102032.91;5077225;28;45706;-71
2022/05/07 07:15:51;;;;;;;;;19.75;19.75;;;;;16.77;54.65;102046.22;5067118;28;45478;-70
2022/05/07 07:18:17;;;;;;;;;19.25;18.00;;;;;16.75;54.56;102038.19;5058111;28;45348;-70
2022/05/07 07:20:43;;;;;;;;;21.25;20.50;;;;;16.78;54.69;102045.28;5061068;28;46170;-70
2022/05/07 07:23:13;;;;;;;;;19.25;19.25;;;;;16.77;54.71;102040.84;5066818;28;45604;-70
2022/05/07 07:25:40;;;;;;;;;21.75;19.25;;;;;16.76;54.54;102037.25;5066238;28;45580;-70
2022/05/07 07:28:06;;;;;;;;;19.00;19.00;;;;;16.76;54.61;102044.47;5072642;28;45356;-70
2022/05/07 07:30:32;;;;;;;;;18.50;17.75;;;;;16.75;54.54;102034.63;5067217;27;47003;-76
2022/05/07 07:32:58;;;;;;;;;22.25;19.50;;;;;16.78;54.85;102042.59;5067669;28;45347;-71
2022/05/07 07:35:24;;;;;;;;;20.50;18.50;;;;;16.78;54.99;102042.59;5058961;28;45166;-72
2022/05/07 07:37:49;;;;;;;;;18.00;18.00;;;;;16.76;54.70;102045.34;5059471;28;45425;-71
2022/05/07 07:40:15;;;;;;;;;19.75;17.00;;;;;16.74;55.01;102030.16;5076147;28;45439;-71
2022/05/07 07:42:41;;;;;;;;;19.75;18.00;;;;;16.71;54.96;102041.09;5079612;28;45389;-71
2022/05/07 07:48:05;;;;;;;;;16.00;15.75;;;;;16.68;55.16;102044.75;5063258;28;46514;-71
2022/05/07 07:50:34;;;;;;;;;17.00;17.00;;;;;16.68;55.25;102050.16;5070934;28;45418;-74
2022/05/07 07:53:08;;;;;;;;;20.50;20.50;;;;;16.68;55.15;102042.06;5079513;28;45409;-71
2022/05/07 07:55:34;;;;;;;;;20.50;17.50;;;;;16.64;55.14;102035.91;5064703;28;45405;-71
2022/05/07 07:58:01;;;;;;;;;19.25;19.00;;;;;16.67;55.39;102029.50;5059229;28;46193;-71
2022/05/07 08:00:28;;;;;;;;;21.75;19.50;;;;;16.71;55.22;102041.97;5077372;28;46408;-72
2022/05/07 08:02:56;;;;;;;;;18.25;17.25;;;;;16.71;55.47;102033.00;5067057;28;45295;-72
2022/05/07 08:05:30;;;;;;;;;20.50;19.75;;;;;16.68;55.42;102024.06;5065286;28;45467;-71
2022/05/07 08:13:24;;;;;;;;;19.25;18.25;;;;;16.80;55.15;102032.63;5071821;28;45419;-74
2022/05/07 08:15:50;;;;;;;;;18.25;18.00;;;;;16.83;54.91;102036.09;5070965;28;45347;-74
2022/05/07 08:18:17;;;;;;;;;19.75;19.00;;;;;16.85;55.17;102031.53;5064986;28;45486;-77
2022/05/07 08:20:43;;;;;;;;;18.75;16.25;;;;;16.88;55.62;102030.56;5067437;28;46348;-77
2022/05/07 08:23:10;;;;;;;;;18.75;18.75;;;;;16.90;55.00;102025.97;5067295;28;45378;-78
2022/05/07 08:25:36;;;;;;;;;17.75;16.50;;;;;16.92;54.88;102028.63;5065438;28;45418;-77
2022/05/07 08:28:02;;;;;;;;;22.25;21.75;;;;;16.99;54.84;102032.81;5076729;28;45462;-76
2022/05/07 08:30:28;;;;;;;;;18.00;17.25;;;;;16.99;55.05;102030.13;5072107;28;46643;-76
2022/05/07 08:32:53;;;;;;;;;19.75;18.25;;;;;16.98;55.21;102028.38;5071891;28;45358;-76
2022/05/07 08:35:19;;;;;;;;;20.50;17.75;;;;;17.00;54.87;102024.69;5075426;28;45393;-75
2022/05/07 08:37:45;;;;;;;;;16.75;16.25;;;;;17.03;54.75;102032.66;5081398;28;45724;-75
2022/05/07 08:40:14;;;;;;;;;17.75;16.75;;;;;17.07;54.93;102033.41;5081913;28;46064;-75
2022/05/07 08:42:39;;;;;;;;;20.50;18.50;;;;;17.10;55.09;102032.44;5068380;28;45243;-75
2022/05/07 08:45:05;;;;;;;;;17.75;16.00;;;;;17.13;55.11;102032.31;5071009;28;45311;-76
2022/05/07 08:47:31;;;;;;;;;18.75;16.50;;;;;17.13;55.18;102033.19;5077321;28;45216;-75
2022/05/07 08:49:57;;;;;;;;;17.00;15.50;;;;;17.16;55.43;102027.66;5082044;28;46395;-75
2022/05/07 08:52:24;;;;;;;;;18.00;16.00;;;;;17.16;54.84;102034.88;5080548;28;45424;-76
2022/05/07 08:54:49;;;;;;;;;17.50;13.75;;;;;17.16;55.04;102024.09;5072560;28;45349;-76
2022/05/07 08:57:16;;;;;;;;;11.00;11.00;;;;;17.23;55.19;102028.31;5061559;28;45472;-76
2022/05/07 08:59:43;;;;;;;;;17.25;15.50;;;;;17.26;54.96;102022.78;5061865;28;45418;-76
2022/05/07 09:02:09;;;;;;;;;16.50;13.75;;;;;17.28;55.12;102023.59;5073219;28;45246;-75
2022/05/07 09:04:36;;;;;;;;;16.50;13.50;;;;;17.29;55.56;102014.56;5066737;27;45273;-75
2022/05/07 09:07:03;;;;;;;;;16.00;14.75;;;;;17.36;55.68;102016.06;5061421;28;45358;-75
2022/05/07 09:09:31;;;;;;;;;20.75;19.00;;;;;17.38;55.32;102014.19;5075293;28;45453;-75
2022/05/07 09:11:57;;;;;;;;;13.75;13.75;;;;;17.35;55.18;102019.69;5073742;28;45853;-76
2022/05/07 09:14:30;;;;;;;;;19.25;17.75;;;;;17.38;55.41;102022.28;5068526;28;45300;-75
2022/05/07 09:16:59;;;;;;;;;17.25;16.25;;;;;17.46;55.14;102018.38;5061535;28;45273;-76
2022/05/07 09:19:30;;;;;;;;;21.00;19.50;;;;;17.48;55.26;102020.09;5061062;28;45344;-75
2022/05/07 09:22:09;;;;;;;;;18.75;16.25;;;;;17.46;55.05;102027.38;5060215;28;45385;-76
2022/05/07 09:24:35;;;;;;;;;17.50;14.75;;;;;17.40;54.95;102014.13;5079695;28;45330;-75
2022/05/07 09:27:03;;;;;;;;;17.50;17.00;;;;;17.45;54.98;102011.25;5068718;28;45596;-75
2022/05/07 09:29:30;;;;;;;;;15.50;15.50;;;;;17.48;55.27;102013.81;5062585;28;47155;-75
2022/05/07 09:32:06;;;;;;;;;19.75;19.25;;;;;17.48;55.27;102006.59;5079953;28;45504;-75
2022/05/07 09:37:20;;;;;;;;;13.75;12.50;;;;;17.59;55.17;102011.53;5063088;28;45598;-76
2022/05/07 09:39:50;;;;;;;;;17.00;17.00;;;;;17.63;55.40;102004.22;5074343;28;46319;-76
2022/05/07 09:42:21;;;;;;;;;21.25;19.50;;;;;17.65;54.98;102000.47;5069842;28;45501;-76
2022/05/07 09:44:47;;;;;;;;;21.25;19.75;;;;;17.68;55.48;101999.50;5068196;28;45389;-75
2022/05/07 09:47:13;;;;;;;;;16.75;15.50;;;;;17.73;54.95;102000.16;5074412;28;45377;-75
2022/05/07 09:52:27;;;;;;;;;20.00;17.25;;;;;17.86;55.08;102001.41;5062412;28;45169;-78
2022/05/07 09:57:38;;;;;;;;;13.50;12.75;;;;;17.92;55.17;101993.03;5063603;28;45497;-80
2022/05/07 10:00:10;;;;;;;;;13.25;12.00;;;;;17.99;55.08;101995.50;5090083;27;46775;-80
2022/05/07 10:03:01;;;;;;;;;17.00;17.00;;;;;18.02;55.42;101996.22;5072039;28;45267;-80
2022/05/07 10:05:29;;;;;;;;;17.75;17.00;;;;;18.08;54.98;101997.81;5068699;28;46027;-80
2022/05/07 10:08:04;;;;;;;;;19.50;17.50;;;;;18.13;54.68;101987.66;5065524;28;45431;-75
2022/05/07 10:10:35;;;;;;;;;16.75;16.25;;;;;18.17;54.89;101993.81;5064515;28;45437;-74
2022/05/07 10:13:02;;;;;;;;;15.50;15.50;;;;;18.25;54.25;101999.75;5073175;28;45176;-75
2022/05/07 10:15:27;;;;;;;;;17.25;16.50;;;;;18.30;54.43;101998.59;5075961;28;45553;-75
2022/05/07 10:18:01;;;;;;;;;16.50;16.50;;;;;18.33;54.99;102001.16;5069885;28;45414;-77
2022/05/07 10:21:03;;;;;;;;;17.25;17.25;;;;;18.39;54.96;101994.59;5074106;28;46937;-74
2022/05/07 10:23:29;;;;;;;;;19.50;18.00;;;;;18.44;54.30;101987.16;5067601;27;45517;-74
2022/05/07 10:25:57;;;;;;;;;20.50;19.00;;;;;18.47;54.05;101984.31;5067186;28;45534;-73
2022/05/07 10:28:22;;;;;;;;;15.25;15.25;;;;;18.55;54.14;101988.50;5063462;28;45519;-73
2022/05/07 10:30:56;;;;;;;;;15.75;14.00;;;;;18.55;54.13;101993.91;5068414;28;45452;-74
2022/05/07 10:33:22;;;;;;;;;18.50;18.50;;;;;18.58;53.80;101997.34;5074862;28;46020;-73
2022/05/07 10:36:06;;;;;;;;;20.00;15.75;;;;;18.60;54.03;101991.88;5057256;28;45529;-74
2022/05/07 10:38:39;;;;;;;;;14.25;14.00;;;;;18.63;53.61;101987.19;5062759;28;45782;-73
2022/05/07 10:41:20;;;;;;;;;18.75;14.75;;;;;18.69;53.56;101991.41;5056888;28;45505;-70
2022/05/07 10:44:02;;;;;;;;;16.00;14.75;;;;;18.70;53.58;101983.25;5069664;28;45615;-73
2022/05/07 10:46:38;;;;;;;;;18.50;18.00;;;;;18.73;53.69;101982.22;5062694;28;46266;-73
2022/05/07 10:49:07;;;;;;;;;15.25;14.75;;;;;18.82;54.18;101987.19;5069460;28;45461;-73
2022/05/07 10:51:50;;;;;;;;;16.00;15.00;;;;;18.90;54.07;101980.59;5069013;28;46656;-73
2022/05/07 10:54:24;;;;;;;;;14.50;12.50;;;;;18.95;53.41;101982.13;5061883;28;45977;-73
2022/05/07 10:56:54;;;;;;;;;15.25;13.25;;;;;18.95;53.40;101974.00;5060151;28;45868;-73
2022/05/07 10:59:22;;;;;;;;;14.00;12.75;;;;;19.04;53.20;101976.28;5066091;28;45367;-71
2022/05/07 11:01:48;;;;;;;;;16.00;15.75;;;;;19.10;52.70;101975.09;5059069;28;45727;-75
2022/05/07 11:04:18;;;;;;;;;16.25;15.50;;;;;19.11;53.07;101976.84;5056454;28;45566;-74
2022/05/07 11:06:53;;;;;;;;;15.25;13.75;;;;;19.11;53.15;101973.25;5056873;28;45500;-76
2022/05/07 11:09:22;;;;;;;;;12.50;12.25;;;;;19.16;53.06;101966.69;5062934;28;45444;-77
2022/05/07 11:11:54;;;;;;;;;14.50;13.50;;;;;19.21;52.70;101967.31;5076018;28;45511;-78
2022/05/07 11:14:24;;;;;;;;;11.00;8.75;;;;;19.27;52.39;101974.25;5071409;28;45688;-75
2022/05/07 11:16:50;;;;;;;;;11.75;11.75;;;;;19.28;52.38;101967.91;5058089;28;45794;-84
2022/05/07 11:19:32;;;;;;;;;12.50;11.25;;;;;19.32;51.95;101965.91;5060168;28;45481;-76
2022/05/07 11:22:01;;;;;;;;;14.25;14.00;;;;;19.35;51.92;101960.34;5064847;28;46185;-76
2022/05/07 11:24:31;;;;;;;;;12.75;11.25;;;;;19.33;51.93;101949.59;5070292;28;45602;-77
2022/05/07 11:27:02;;;;;;;;;17.50;13.00;;;;;19.43;52.17;101956.31;5073592;28;46044;-80
2022/05/07 11:29:29;;;;;;;;;19.25;16.25;;;;;19.44;51.72;101962.59;5055570;28;45521;-79
2022/05/07 11:31:58;;;;;;;;;14.75;12.75;;;;;19.38;51.58;101963.78;5071120;28;46279;-81
2022/05/07 11:34:35;;;;;;;;;15.75;13.50;;;;;19.37;51.75;101959.31;5073053;28;45750;-78
2022/05/07 11:37:20;;;;;;;;;14.75;13.00;;;;;19.40;52.04;101961.00;5067579;28;45775;-77
2022/05/07 11:40:06;;;;;;;;;15.50;11.25;;;;;19.39;52.07;101960.09;5058987;28;45496;-76
2022/05/07 11:42:46;;;;;;;;;13.75;13.75;;;;;19.36;52.08;101953.97;5058510;28;46612;-79